createdAt,value
2022-08-07T00:00:45.257Z,7.07
2022-08-07T00:03:36.588Z,9.60
2022-08-07T00:06:29.428Z,9.27
2022-08-07T00:09:29.242Z,8.93
2022-08-07T00:12:24.195Z,7.65
2022-08-07T00:15:15.825Z,8.50
2022-08-07T00:18:04.869Z,8.45
2022-08-07T00:20:56.727Z,9.20
2022-08-07T00:23:46.004Z,7.95
2022-08-07T00:26:58.742Z,8.65
2022-08-07T00:29:44.274Z,8.50
2022-08-07T00:32:34.978Z,7.78
2022-08-07T00:35:24.213Z,7.35
2022-08-07T00:38:13.112Z,7.50
2022-08-07T00:41:01.877Z,7.57
2022-08-07T00:43:58.998Z,7.63
2022-08-07T00:46:49.171Z,7.63
2022-08-07T00:50:20.458Z,9.10
2022-08-07T00:52:49.593Z,9.00
2022-08-07T00:56:03.233Z,8.32
2022-08-07T00:58:50.302Z,7.80
2022-08-07T01:01:44.145Z,7.20
2022-08-07T01:04:35.504Z,7.72
2022-08-07T01:07:33.103Z,9.85
2022-08-07T01:10:22.729Z,8.48
2022-08-07T01:13:11.153Z,9.27
2022-08-07T01:16:06.412Z,8.23
2022-08-07T01:18:55.300Z,7.28
2022-08-07T01:21:46.698Z,8.48
2022-08-07T01:24:35.979Z,7.68
2022-08-07T01:27:32.020Z,8.13
2022-08-07T01:30:27.226Z,7.97
2022-08-07T01:33:18.761Z,7.85
2022-08-07T01:36:09.895Z,8.10
2022-08-07T01:39:04.098Z,7.65
2022-08-07T01:42:37.771Z,7.13
2022-08-07T01:45:17.752Z,7.78
2022-08-07T01:48:17.839Z,8.18
2022-08-07T01:52:01.032Z,11.85
2022-08-07T01:54:32.915Z,7.40
2022-08-07T01:57:34.038Z,7.72
2022-08-07T02:00:45.406Z,7.95
2022-08-07T02:03:48.727Z,8.25
2022-08-07T02:06:42.700Z,8.45
2022-08-07T02:12:46.558Z,8.35
2022-08-07T02:18:36.036Z,9.60
2022-08-07T02:21:56.160Z,9.65
2022-08-07T02:24:46.738Z,7.38
2022-08-07T02:27:41.149Z,9.05
2022-08-07T02:30:31.065Z,9.52
2022-08-07T02:33:21.676Z,8.75
2022-08-07T02:36:30.255Z,10.18
2022-08-07T02:39:43.935Z,10.25
2022-08-07T02:42:35.112Z,9.82
2022-08-07T02:45:57.695Z,9.65
2022-08-07T02:48:35.844Z,10.23
2022-08-07T02:51:49.853Z,9.15
2022-08-07T02:54:42.365Z,10.13
2022-08-07T02:57:35.215Z,9.27
2022-08-07T03:00:25.420Z,9.70
2022-08-07T03:03:22.905Z,8.77
2022-08-07T03:06:25.657Z,12.68
2022-08-07T03:09:43.269Z,10.20
2022-08-07T03:12:35.307Z,13.23
2022-08-07T03:15:47.914Z,9.27
2022-08-07T03:18:38.605Z,10.57
2022-08-07T03:21:33.160Z,9.15
2022-08-07T03:24:27.018Z,9.45
2022-08-07T03:27:30.382Z,8.43
2022-08-07T03:30:26.075Z,10.32
2022-08-07T03:33:17.124Z,9.35
2022-08-07T03:36:11.163Z,9.95
2022-08-07T03:39:05.598Z,8.65
2022-08-07T03:41:55.567Z,8.75
2022-08-07T03:44:57.694Z,10.15
2022-08-07T03:47:51.510Z,12.88
2022-08-07T03:50:56.188Z,10.55
2022-08-07T03:54:32.953Z,9.43
2022-08-07T03:57:07.326Z,9.25
2022-08-07T04:00:02.709Z,8.52
2022-08-07T04:03:06.400Z,8.60
2022-08-07T04:06:02.263Z,11.10
2022-08-07T04:08:53.190Z,10.80
2022-08-07T04:12:25.604Z,9.15
2022-08-07T04:14:51.705Z,9.32
2022-08-07T04:18:31.348Z,10.15
2022-08-07T04:20:55.248Z,9.07
2022-08-07T04:24:03.908Z,10.80
2022-08-07T04:26:54.298Z,10.20
2022-08-07T04:30:02.098Z,10.35
2022-08-07T04:33:15.855Z,9.77
2022-08-07T04:36:09.980Z,9.32
2022-08-07T04:39:00.594Z,10.20
2022-08-07T04:41:50.352Z,10.43
2022-08-07T04:44:54.700Z,8.98
2022-08-07T04:48:10.681Z,9.02
2022-08-07T04:51:09.042Z,10.03
2022-08-07T04:54:06.182Z,11.23
2022-08-07T04:58:11.093Z,10.13
2022-08-07T05:00:30.246Z,10.15
2022-08-07T05:03:59.861Z,9.40
2022-08-07T05:06:43.324Z,10.25
2022-08-07T05:09:46.250Z,9.68
2022-08-07T05:12:59.854Z,10.45
2022-08-07T05:16:04.581Z,9.90
2022-08-07T05:19:00.278Z,9.32
2022-08-07T05:21:59.941Z,9.00
2022-08-07T05:24:57.329Z,10.10
2022-08-07T05:28:02.894Z,9.55
2022-08-07T05:30:59.399Z,10.20
2022-08-07T05:34:04.360Z,10.77
2022-08-07T05:36:57.925Z,8.98
2022-08-07T05:40:06.067Z,11.13
2022-08-07T05:43:10.552Z,12.18
2022-08-07T05:46:02.570Z,11.00
2022-08-07T05:48:58.313Z,30.98
2022-08-07T05:51:51.659Z,17.70
2022-08-07T05:54:44.465Z,11.60
2022-08-07T05:57:47.883Z,13.45
2022-08-07T06:00:40.419Z,15.07
2022-08-07T06:03:53.900Z,10.98
2022-08-07T06:06:46.442Z,10.93
2022-08-07T06:09:56.604Z,11.45
2022-08-07T06:12:49.244Z,9.35
2022-08-07T06:15:42.694Z,12.07
2022-08-07T06:18:37.612Z,10.65
2022-08-07T06:22:16.875Z,10.10
2022-08-07T06:24:52.828Z,8.40
2022-08-07T06:28:01.358Z,10.35
2022-08-07T06:30:53.157Z,8.52
2022-08-07T06:33:44.046Z,9.60
2022-08-07T06:36:35.875Z,11.15
2022-08-07T06:40:17.715Z,9.45
2022-08-07T06:42:38.971Z,9.73
2022-08-07T06:45:35.694Z,10.98
2022-08-07T06:48:25.230Z,11.40
2022-08-07T06:51:31.237Z,11.10
2022-08-07T06:55:31.676Z,11.60
2022-08-07T06:57:47.143Z,10.82
2022-08-07T07:00:45.538Z,9.45
2022-08-07T07:03:47.507Z,9.57
2022-08-07T07:06:39.394Z,10.90
2022-08-07T07:09:48.451Z,10.63
2022-08-07T07:12:48.552Z,20.52
2022-08-07T07:15:51.398Z,26.83
2022-08-07T07:18:47.914Z,24.30
2022-08-07T07:22:04.621Z,42.78
2022-08-07T07:24:56.919Z,25.23
2022-08-07T07:27:55.531Z,13.15
2022-08-07T07:30:50.333Z,14.57
2022-08-07T07:33:40.663Z,14.02
2022-08-07T07:36:32.447Z,15.00
2022-08-07T07:39:25.622Z,21.88
2022-08-07T07:42:19.771Z,22.92
2022-08-07T07:45:09.319Z,13.30
2022-08-07T07:48:02.194Z,14.40
2022-08-07T07:50:53.904Z,14.13
2022-08-07T07:56:42.153Z,11.48
2022-08-07T07:59:52.799Z,14.95
2022-08-07T08:03:04.768Z,11.70
2022-08-07T08:08:45.380Z,12.82
2022-08-07T08:11:59.603Z,10.98
2022-08-07T08:14:46.509Z,9.30
2022-08-07T08:17:57.803Z,10.35
2022-08-07T08:20:48.122Z,12.00
2022-08-07T08:23:56.018Z,14.48
2022-08-07T08:27:02.491Z,16.98
2022-08-07T08:30:03.957Z,13.85
2022-08-07T08:32:55.820Z,11.77
2022-08-07T08:35:50.036Z,16.48
2022-08-07T08:38:43.593Z,20.27
2022-08-07T08:41:57.898Z,11.93
2022-08-07T08:44:55.781Z,10.85
2022-08-07T08:47:55.433Z,10.48
2022-08-07T08:50:48.879Z,9.95
2022-08-07T08:53:48.475Z,10.77
2022-08-07T08:56:47.372Z,9.02
2022-08-07T08:59:55.057Z,9.65
2022-08-07T09:02:54.749Z,9.75
2022-08-07T09:05:54.448Z,10.00
2022-08-07T09:08:58.133Z,10.63
2022-08-07T09:11:56.171Z,11.27
2022-08-07T09:16:23.468Z,10.07
2022-08-07T09:18:24.441Z,9.52
2022-08-07T09:21:33.984Z,10.43
2022-08-07T09:24:59.626Z,10.30
2022-08-07T09:28:00.092Z,11.52
2022-08-07T09:30:59.661Z,14.15
2022-08-07T09:34:07.692Z,11.10
2022-08-07T09:37:03.133Z,10.38
2022-08-07T09:40:03.500Z,13.80
2022-08-07T09:43:01.573Z,11.20
2022-08-07T09:47:51.179Z,9.85
2022-08-07T09:50:02.500Z,8.75
2022-08-07T09:52:42.440Z,9.25
2022-08-07T09:56:02.831Z,10.95
2022-08-07T09:59:44.619Z,11.23
2022-08-07T10:03:07.923Z,10.68
2022-08-07T10:06:18.250Z,11.05
2022-08-07T10:09:23.665Z,10.48
2022-08-07T10:12:53.887Z,9.48
2022-08-07T10:16:06.062Z,8.50
2022-08-07T10:19:38.396Z,9.88
2022-08-07T10:22:47.347Z,9.38
2022-08-07T10:25:55.199Z,9.10
2022-08-07T10:29:00.050Z,8.85
2022-08-07T10:32:01.210Z,10.35
2022-08-07T10:35:03.575Z,9.88
2022-08-07T10:38:35.268Z,9.35
2022-08-07T10:41:47.487Z,10.35
2022-08-07T10:44:58.047Z,9.55
2022-08-07T10:47:55.196Z,9.57
2022-08-07T10:50:53.645Z,8.65
2022-08-07T10:53:51.941Z,9.98
2022-08-07T10:56:50.674Z,9.68
2022-08-07T11:00:03.526Z,8.02
2022-08-07T11:03:02.250Z,8.25
2022-08-07T11:05:56.658Z,8.70
2022-08-07T11:08:54.331Z,9.57
2022-08-07T11:11:51.936Z,8.88
2022-08-07T11:14:59.978Z,8.82
2022-08-07T11:17:53.972Z,9.27
2022-08-07T11:20:49.958Z,8.90
2022-08-07T11:23:48.534Z,9.57
2022-08-07T11:26:50.064Z,9.02
2022-08-07T11:29:49.099Z,8.98
2022-08-07T11:32:50.040Z,7.65
2022-08-07T11:35:59.793Z,9.25
2022-08-07T11:39:03.455Z,8.98
2022-08-07T11:42:03.316Z,8.30
2022-08-07T11:44:58.281Z,8.35
2022-08-07T11:48:03.435Z,8.43
2022-08-07T11:51:10.461Z,8.70
2022-08-07T11:57:57.870Z,9.02
2022-08-07T12:00:41.654Z,13.30
2022-08-07T12:03:58.731Z,12.38
2022-08-07T12:07:00.363Z,9.85
2022-08-07T12:10:05.754Z,8.20
2022-08-07T12:13:01.882Z,8.40
2022-08-07T12:16:08.982Z,9.65
2022-08-07T12:19:08.135Z,14.40
2022-08-07T12:22:37.934Z,9.73
2022-08-07T12:26:03.310Z,10.63
2022-08-07T12:28:54.060Z,7.00
2022-08-07T12:32:04.305Z,8.90
2022-08-07T12:34:56.525Z,8.57
2022-08-07T12:38:09.761Z,8.77
2022-08-07T12:41:01.138Z,7.95
2022-08-07T12:44:04.167Z,9.65
2022-08-07T12:47:14.440Z,8.45
2022-08-07T12:50:33.929Z,8.20
2022-08-07T12:54:03.304Z,8.82
2022-08-07T12:56:51.034Z,7.40
2022-08-07T12:59:55.421Z,7.22
2022-08-07T13:03:08.066Z,8.38
2022-08-07T13:06:21.392Z,8.20
2022-08-07T13:10:19.600Z,7.68
2022-08-07T13:12:42.133Z,7.90
2022-08-07T13:15:44.301Z,8.35
2022-08-07T13:18:44.692Z,7.97
2022-08-07T13:21:58.968Z,9.13
2022-08-07T13:24:59.172Z,8.55
2022-08-07T13:28:11.504Z,8.95
2022-08-07T13:31:12.949Z,9.35
2022-08-07T13:34:33.539Z,9.27
2022-08-07T13:37:29.769Z,8.00
2022-08-07T13:40:36.488Z,8.13
2022-08-07T13:43:34.383Z,8.15
2022-08-07T13:46:33.048Z,8.20
2022-08-07T13:50:33.800Z,7.95
2022-08-07T13:52:41.122Z,8.73
2022-08-07T13:55:34.009Z,8.40
2022-08-07T13:58:56.093Z,9.88
2022-08-07T14:02:03.437Z,7.55
2022-08-07T14:04:58.716Z,7.13
2022-08-07T14:08:00.232Z,7.45
2022-08-07T14:11:14.819Z,7.03
2022-08-07T14:14:08.773Z,7.68
2022-08-07T14:17:00.108Z,6.95
2022-08-07T14:20:41.161Z,7.03
2022-08-07T14:24:00.493Z,7.53
2022-08-07T14:26:50.027Z,7.15
2022-08-07T14:30:05.353Z,7.20
2022-08-07T14:32:57.321Z,7.72
2022-08-07T14:35:47.830Z,7.40
2022-08-07T14:38:37.533Z,7.30
2022-08-07T14:41:34.184Z,8.63
2022-08-07T14:44:48.421Z,6.75
2022-08-07T14:47:41.900Z,7.22
2022-08-07T14:56:56.296Z,7.43
2022-08-07T15:00:04.851Z,6.85
2022-08-07T15:02:57.137Z,7.35
2022-08-07T15:05:55.155Z,7.10
2022-08-07T15:08:56.164Z,7.28
2022-08-07T15:13:05.887Z,7.63
2022-08-07T15:15:17.416Z,6.57
2022-08-07T15:18:33.915Z,7.03
2022-08-07T15:21:59.351Z,7.03
2022-08-07T15:25:13.407Z,6.97
2022-08-07T15:28:32.277Z,7.30
2022-08-07T15:31:06.617Z,6.75
2022-08-07T15:34:01.628Z,7.35
2022-08-07T15:37:03.786Z,7.57
2022-08-07T15:40:01.125Z,7.07
2022-08-07T15:42:55.831Z,6.88
2022-08-07T15:45:55.420Z,7.90
2022-08-07T15:54:48.253Z,6.90
2022-08-07T15:57:47.993Z,6.82
2022-08-07T16:00:40.058Z,6.63
2022-08-07T16:03:46.509Z,7.97
2022-08-07T16:06:39.108Z,6.80
2022-08-07T16:09:42.016Z,6.80
2022-08-07T16:12:39.004Z,7.80
2022-08-07T16:15:57.663Z,6.15
2022-08-07T16:19:04.288Z,7.78
2022-08-07T16:22:17.915Z,6.78
2022-08-07T16:25:54.424Z,7.47
2022-08-07T16:30:05.664Z,6.95
2022-08-07T16:32:34.953Z,7.15
2022-08-07T16:35:58.664Z,6.72
2022-08-07T16:39:01.224Z,7.30
2022-08-07T16:42:14.885Z,6.28
2022-08-07T16:46:11.015Z,8.60
2022-08-07T16:50:27.191Z,6.35
2022-08-07T16:53:55.567Z,6.22
2022-08-07T16:56:53.582Z,6.53
2022-08-07T16:59:51.998Z,7.07
2022-08-07T17:03:05.091Z,6.57
2022-08-07T17:06:29.767Z,6.75
2022-08-07T17:10:06.126Z,7.40
2022-08-07T17:12:44.016Z,6.75
2022-08-07T17:15:44.328Z,6.90
2022-08-07T17:18:46.068Z,6.95
2022-08-07T17:21:50.596Z,6.68
2022-08-07T17:25:05.229Z,7.22
2022-08-07T17:28:01.984Z,6.60
2022-08-07T17:31:16.137Z,8.02
2022-08-07T17:34:33.386Z,7.38
2022-08-07T17:38:09.710Z,6.53
2022-08-07T17:40:50.554Z,6.78
2022-08-07T17:44:01.125Z,7.43
2022-08-07T17:46:58.956Z,6.53
2022-08-07T17:49:55.405Z,5.72
2022-08-07T17:52:58.979Z,6.20
2022-08-07T17:56:06.380Z,6.55
2022-08-07T17:59:04.914Z,6.75
2022-08-07T18:01:59.279Z,6.40
2022-08-07T18:05:20.987Z,6.70
2022-08-07T18:08:24.294Z,7.00
2022-08-07T18:12:07.518Z,5.95
2022-08-07T18:14:44.897Z,5.90
2022-08-07T18:18:33.184Z,6.32
2022-08-07T18:21:06.591Z,7.20
2022-08-07T18:24:28.450Z,6.30
2022-08-07T18:27:38.916Z,6.75
2022-08-07T18:30:36.886Z,6.47
2022-08-07T18:34:03.570Z,6.70
2022-08-07T18:37:09.366Z,5.75
2022-08-07T18:40:18.591Z,6.78
2022-08-07T18:43:42.492Z,5.70
2022-08-07T18:46:43.097Z,7.40
2022-08-07T18:50:31.384Z,6.57
2022-08-07T18:53:06.451Z,6.25
2022-08-07T18:56:09.253Z,6.38
2022-08-07T18:59:47.685Z,6.55
2022-08-07T19:02:42.927Z,5.30
2022-08-07T19:06:03.631Z,6.47
2022-08-07T19:09:09.598Z,6.20
2022-08-07T19:12:19.805Z,6.40
2022-08-07T19:15:22.815Z,6.65
2022-08-07T19:18:44.938Z,5.18
2022-08-07T19:21:55.884Z,5.55
2022-08-07T19:24:48.793Z,5.95
2022-08-07T19:28:57.906Z,5.80
2022-08-07T19:31:43.626Z,5.55
2022-08-07T19:34:04.184Z,6.22
2022-08-07T19:36:55.428Z,5.75
2022-08-07T19:40:02.937Z,5.88
2022-08-07T19:42:52.775Z,5.80
2022-08-07T19:46:05.615Z,6.20
2022-08-07T19:49:03.735Z,6.03
2022-08-07T19:52:00.563Z,5.88
2022-08-07T19:54:56.260Z,5.95
2022-08-07T19:58:02.803Z,6.10
2022-08-07T20:01:01.666Z,6.03
2022-08-07T20:03:53.315Z,5.80
2022-08-07T20:06:45.453Z,5.25
2022-08-07T20:10:36.712Z,5.82
2022-08-07T20:12:54.713Z,6.53
2022-08-07T20:15:44.975Z,6.07
2022-08-07T20:18:35.520Z,6.15
2022-08-07T20:21:25.421Z,5.63
2022-08-07T20:24:23.073Z,5.68
2022-08-07T20:27:14.059Z,5.72
2022-08-07T20:30:30.181Z,6.57
2022-08-07T20:33:36.944Z,5.68
2022-08-07T20:36:30.885Z,6.00
2022-08-07T20:40:03.004Z,5.60
2022-08-07T20:42:39.621Z,6.00
2022-08-07T20:46:28.152Z,5.70
2022-08-07T20:49:53.958Z,6.22
2022-08-07T20:51:52.018Z,6.00
2022-08-07T20:54:45.609Z,5.22
2022-08-07T20:58:00.045Z,5.45
2022-08-07T21:00:56.265Z,5.53
2022-08-07T21:04:13.067Z,5.07
2022-08-07T21:07:04.311Z,5.35
2022-08-07T21:10:07.612Z,5.75
2022-08-07T21:13:01.940Z,5.25
2022-08-07T21:16:00.403Z,5.93
2022-08-07T21:18:53.298Z,5.40
2022-08-07T21:21:56.617Z,5.70
2022-08-07T21:24:55.689Z,4.88
2022-08-07T21:28:07.813Z,5.30
2022-08-07T21:31:03.443Z,6.10
2022-08-07T21:33:57.752Z,5.45
2022-08-07T21:36:54.246Z,5.72
2022-08-07T21:39:56.421Z,5.15
2022-08-07T21:43:05.697Z,5.32
2022-08-07T21:46:13.999Z,5.05
2022-08-07T21:49:27.625Z,5.05
2022-08-07T21:52:33.240Z,5.47
2022-08-07T21:55:28.154Z,5.30
2022-08-07T21:58:32.894Z,5.88
2022-08-07T22:01:28.628Z,5.22
2022-08-07T22:04:38.223Z,4.88
2022-08-07T22:07:48.651Z,5.43
2022-08-07T22:10:42.437Z,5.05
2022-08-07T22:13:50.872Z,4.68
2022-08-07T22:16:48.721Z,5.43
2022-08-07T22:19:43.510Z,5.38
2022-08-07T22:22:39.940Z,5.03
2022-08-07T22:25:42.253Z,4.93
2022-08-07T22:28:48.363Z,5.13
2022-08-07T22:32:00.189Z,5.18
2022-08-07T22:34:56.186Z,5.38
2022-08-07T22:38:03.373Z,4.83
2022-08-07T22:41:00.036Z,5.18
2022-08-07T22:43:56.355Z,5.03
2022-08-07T22:47:14.922Z,4.93
2022-08-07T22:50:20.613Z,5.20
2022-08-07T22:54:06.313Z,5.80
2022-08-07T22:56:53.138Z,4.78
2022-08-07T23:00:02.067Z,5.25
2022-08-07T23:03:09.174Z,6.20
2022-08-07T23:06:15.246Z,5.20
2022-08-07T23:10:05.219Z,5.60
2022-08-07T23:12:54.217Z,5.03
2022-08-07T23:16:06.032Z,5.32
2022-08-07T23:19:38.889Z,5.25
2022-08-07T23:22:45.311Z,5.50
2022-08-07T23:25:44.697Z,5.22
2022-08-07T23:29:42.623Z,4.57
2022-08-07T23:34:23.251Z,4.55
2022-08-07T23:35:46.048Z,4.82
2022-08-07T23:38:59.131Z,4.60
2022-08-07T23:42:05.153Z,5.18
2022-08-07T23:45:15.505Z,5.25
2022-08-07T23:48:50.906Z,4.95
2022-08-07T23:53:08.780Z,5.80
2022-08-07T23:55:12.315Z,5.38
2022-08-07T23:58:28.365Z,4.75
